Time;durP1;ratioP1;P1;durP2;ratioP2;P2;SDS_P1;SDS_P2;PMS_P1;PMS_P2;Temp;Humidity;BMP_temperature;BMP_pressure;BME280_temperature;BME280_humidity;BME280_pressure;Samples;Min_cycle;Max_cycle;Signal;HPM_P1;HPM_P2
2021/06/30 00:02:08;;;;;;;10.55;5.32;;;;;;;;;;5110451;28;20019;-70
2021/06/30 00:04:34;;;;;;;10.18;5.38;;;;;;;;;;5110428;28;20430;-70
2021/06/30 00:07:00;;;;;;;18.92;6.97;;;;;;;;;;5109701;28;20020;-70
2021/06/30 00:09:26;;;;;;;12.27;5.90;;;;;;;;;;5110098;28;20515;-70
2021/06/30 00:11:52;;;;;;;15.23;6.13;;;;;;;;;;5110121;28;20098;-70
2021/06/30 00:14:18;;;;;;;14.98;5.82;;;;;;;;;;5109600;28;20024;-69
2021/06/30 00:16:45;;;;;;;8.77;4.75;;;;;;;;;;5110011;28;20468;-69
2021/06/30 00:19:12;;;;;;;10.32;4.90;;;;;;;;;;5108730;28;20035;-69
2021/06/30 00:21:38;;;;;;;8.75;5.28;;;;;;;;;;5108393;28;20353;-69
2021/06/30 00:24:06;;;;;;;11.40;5.43;;;;;;;;;;5110010;28;20031;-69
2021/06/30 00:26:32;;;;;;;11.07;4.53;;;;;;;;;;5109818;28;20090;-69
2021/06/30 00:28:58;;;;;;;9.10;4.35;;;;;;;;;;5109345;28;20081;-70
2021/06/30 00:31:25;;;;;;;6.75;4.30;;;;;;;;;;5109727;28;20019;-70
2021/06/30 00:35:43;;;;;;;7.13;4.43;;;;;;;;;;5110145;27;20396;-70
2021/06/30 00:38:09;;;;;;;12.93;4.85;;;;;;;;;;5110419;28;20024;-70
2021/06/30 00:40:36;;;;;;;10.82;5.13;;;;;;;;;;5110599;28;20104;-69
2021/06/30 00:43:02;;;;;;;9.25;4.32;;;;;;;;;;5110166;28;20472;-71
2021/06/30 00:45:28;;;;;;;5.72;3.55;;;;;;;;;;5110393;28;20095;-69
2021/06/30 00:47:54;;;;;;;9.68;4.57;;;;;;;;;;5109004;28;20561;-69
2021/06/30 00:50:21;;;;;;;10.73;5.50;;;;;;;;;;5109829;28;20020;-70
2021/06/30 00:52:47;;;;;;;8.77;4.93;;;;;;;;;;5110228;28;20506;-70
2021/06/30 00:55:15;;;;;;;9.23;5.10;;;;;;;;;;5110137;28;20036;-70
2021/06/30 00:57:43;;;;;;;11.30;6.10;;;;;;;;;;5109680;28;20384;-70
2021/06/30 01:00:10;;;;;;;9.80;5.00;;;;;;;;;;5110149;28;20046;-70
2021/06/30 01:02:36;;;;;;;9.93;5.30;;;;;;;;;;5110225;28;20384;-70
2021/06/30 01:05:03;;;;;;;10.20;4.80;;;;;;;;;;5109576;28;20547;-70
2021/06/30 01:07:29;;;;;;;7.20;4.78;;;;;;;;;;5109931;28;20031;-70
2021/06/30 01:09:55;;;;;;;9.88;4.45;;;;;;;;;;5109552;28;20464;-69
2021/06/30 01:12:21;;;;;;;9.15;4.55;;;;;;;;;;5109839;28;20118;-69
2021/06/30 01:14:47;;;;;;;9.57;5.15;;;;;;;;;;5109744;28;20392;-69
2021/06/30 01:17:14;;;;;;;10.32;5.63;;;;;;;;;;5109425;28;20039;-69
2021/06/30 01:19:40;;;;;;;12.10;5.85;;;;;;;;;;5108595;28;20106;-69
2021/06/30 01:22:07;;;;;;;10.18;5.78;;;;;;;;;;5108584;28;20110;-69
2021/06/30 01:24:34;;;;;;;11.57;5.70;;;;;;;;;;5109551;28;20486;-69
2021/06/30 01:27:00;;;;;;;9.38;5.47;;;;;;;;;;5109546;28;20102;-69
2021/06/30 01:29:26;;;;;;;8.85;5.15;;;;;;;;;;5109468;28;20407;-69
2021/06/30 01:31:52;;;;;;;8.02;4.80;;;;;;;;;;5109135;28;20024;-69
2021/06/30 01:34:19;;;;;;;8.85;4.95;;;;;;;;;;5109203;28;20039;-69
2021/06/30 01:36:49;;;;;;;8.80;4.60;;;;;;;;;;5109253;28;20428;-70
2021/06/30 01:39:16;;;;;;;14.73;5.57;;;;;;;;;;5107726;28;20089;-69
2021/06/30 01:41:43;;;;;;;7.15;4.60;;;;;;;;;;5109486;28;20023;-69
2021/06/30 01:44:10;;;;;;;8.57;4.63;;;;;;;;;;5109235;28;20024;-69
2021/06/30 01:46:37;;;;;;;7.68;5.20;;;;;;;;;;5097753;28;20016;-69
2021/06/30 01:49:03;;;;;;;8.60;4.72;;;;;;;;;;5095575;28;20380;-69
2021/06/30 01:51:29;;;;;;;10.45;4.88;;;;;;;;;;5095480;28;20050;-69
2021/06/30 01:53:56;;;;;;;9.48;5.00;;;;;;;;;;5095150;28;20031;-70
2021/06/30 01:56:27;;;;;;;11.68;5.80;;;;;;;;;;5095430;28;20028;-69
2021/06/30 01:59:00;;;;;;;10.77;5.28;;;;;;;;;;5095496;28;20020;-69
2021/06/30 02:01:27;;;;;;;18.20;5.22;;;;;;;;;;5095617;28;20020;-69
2021/06/30 02:03:55;;;;;;;9.40;4.70;;;;;;;;;;5095312;28;20477;-69
2021/06/30 02:06:21;;;;;;;12.40;5.50;;;;;;;;;;5094870;28;20037;-69
2021/06/30 02:08:47;;;;;;;7.65;4.70;;;;;;;;;;5095194;28;20502;-69
2021/06/30 02:11:14;;;;;;;9.55;5.15;;;;;;;;;;5095077;28;20056;-69
2021/06/30 02:13:40;;;;;;;7.97;5.07;;;;;;;;;;5094718;28;20024;-69
2021/06/30 02:16:06;;;;;;;6.75;4.40;;;;;;;;;;5095088;28;20104;-69
2021/06/30 02:18:32;;;;;;;9.63;5.00;;;;;;;;;;5095677;28;20128;-69
2021/06/30 02:20:59;;;;;;;9.70;5.53;;;;;;;;;;5094805;28;20020;-69
2021/06/30 02:23:25;;;;;;;11.35;4.78;;;;;;;;;;5094964;28;20020;-69
2021/06/30 02:25:51;;;;;;;8.65;5.18;;;;;;;;;;5094882;28;20531;-69
2021/06/30 02:28:18;;;;;;;8.05;5.13;;;;;;;;;;5094508;28;20482;-69
2021/06/30 02:32:40;;;;;;;9.13;4.78;;;;;;;;;;5110516;27;20385;-69
2021/06/30 02:35:07;;;;;;;8.43;4.57;;;;;;;;;;5110040;28;20499;-70
2021/06/30 02:39:30;;;;;;;11.02;5.63;;;;;;;;;;5110667;27;20935;-69
2021/06/30 02:41:57;;;;;;;8.82;4.85;;;;;;;;;;5109081;28;20480;-70
2021/06/30 02:44:23;;;;;;;9.50;4.95;;;;;;;;;;5110414;28;20028;-69
2021/06/30 02:46:49;;;;;;;8.85;5.35;;;;;;;;;;5110431;28;20426;-69
2021/06/30 02:49:15;;;;;;;9.82;4.70;;;;;;;;;;5110000;28;20016;-69
2021/06/30 02:51:41;;;;;;;9.00;5.47;;;;;;;;;;5110297;28;20023;-69
2021/06/30 02:54:07;;;;;;;7.70;4.97;;;;;;;;;;5110231;28;20028;-70
2021/06/30 02:58:12;;;;;;;11.02;5.13;;;;;;;;;;5110536;27;20882;-69
2021/06/30 03:00:38;;;;;;;10.18;6.03;;;;;;;;;;5110594;28;20364;-69
2021/06/30 03:03:04;;;;;;;10.27;5.72;;;;;;;;;;5110110;28;20157;-69
2021/06/30 03:05:30;;;;;;;10.57;5.95;;;;;;;;;;5110621;28;20024;-69
2021/06/30 03:07:57;;;;;;;10.80;5.18;;;;;;;;;;5109438;28;20103;-70
2021/06/30 03:10:23;;;;;;;11.13;4.75;;;;;;;;;;5110376;28;20078;-69
2021/06/30 03:12:49;;;;;;;8.25;5.20;;;;;;;;;;5111335;28;20518;-69
2021/06/30 03:16:38;;;;;;;8.60;5.45;;;;;;;;;;5110968;27;20396;-69
2021/06/30 03:19:04;;;;;;;13.60;6.13;;;;;;;;;;5110411;28;20024;-69
2021/06/30 03:21:30;;;;;;;8.18;4.82;;;;;;;;;;5111930;28;20023;-69
2021/06/30 03:25:34;;;;;;;15.50;5.68;;;;;;;;;;5111173;27;20419;-69
2021/06/30 03:28:01;;;;;;;11.00;5.55;;;;;;;;;;5110249;28;20027;-69
2021/06/30 03:30:31;;;;;;;9.38;5.47;;;;;;;;;;5111089;28;20391;-69
2021/06/30 03:32:57;;;;;;;8.80;5.75;;;;;;;;;;5110553;28;20430;-70
2021/06/30 03:35:23;;;;;;;11.70;5.60;;;;;;;;;;5110804;28;20079;-70
2021/06/30 03:37:49;;;;;;;10.23;5.38;;;;;;;;;;5110243;28;20071;-69
2021/06/30 03:40:15;;;;;;;11.82;5.72;;;;;;;;;;5110796;28;20028;-70
2021/06/30 03:42:42;;;;;;;8.68;4.82;;;;;;;;;;5110336;28;20024;-70
2021/06/30 03:45:09;;;;;;;8.18;5.30;;;;;;;;;;5109697;28;20031;-69
2021/06/30 03:47:35;;;;;;;9.23;5.53;;;;;;;;;;5110019;28;20047;-70
2021/06/30 03:50:02;;;;;;;9.48;6.10;;;;;;;;;;5110156;28;20129;-70
2021/06/30 03:53:46;;;;;;;7.68;4.65;;;;;;;;;;5110004;27;20478;-70
2021/06/30 03:56:12;;;;;;;9.25;5.72;;;;;;;;;;5110514;28;20519;-70
2021/06/30 03:58:38;;;;;;;9.80;5.15;;;;;;;;;;5110300;28;20024;-70
2021/06/30 04:01:04;;;;;;;8.25;4.80;;;;;;;;;;5110532;28;20063;-70
2021/06/30 04:03:31;;;;;;;7.38;4.97;;;;;;;;;;5109152;28;20111;-70
2021/06/30 04:05:58;;;;;;;8.82;4.40;;;;;;;;;;5109981;28;20514;-70
2021/06/30 04:08:24;;;;;;;7.85;4.50;;;;;;;;;;5110309;28;20024;-70
2021/06/30 04:11:35;;;;;;;6.80;4.40;;;;;;;;;;5110432;27;20981;-70
2021/06/30 04:14:02;;;;;;;22.23;5.43;;;;;;;;;;5110044;28;20047;-70
2021/06/30 04:16:28;;;;;;;11.48;5.53;;;;;;;;;;5110521;28;20028;-70
2021/06/30 04:18:54;;;;;;;8.55;4.80;;;;;;;;;;5110583;28;20020;-70
2021/06/30 04:21:20;;;;;;;7.13;4.47;;;;;;;;;;5110556;28;20416;-70
2021/06/30 04:23:46;;;;;;;10.77;5.45;;;;;;;;;;5110745;28;20133;-70
2021/06/30 04:26:13;;;;;;;9.00;5.45;;;;;;;;;;5110657;28;20024;-69
2021/06/30 04:28:39;;;;;;;19.17;5.78;;;;;;;;;;5109771;28;20425;-70
2021/06/30 04:31:05;;;;;;;11.85;5.13;;;;;;;;;;5110106;28;20071;-70
2021/06/30 04:33:31;;;;;;;9.23;5.22;;;;;;;;;;5110102;28;20118;-70
2021/06/30 04:35:58;;;;;;;10.70;5.85;;;;;;;;;;5108358;28;20032;-70
2021/06/30 04:38:25;;;;;;;8.95;4.57;;;;;;;;;;5110028;28;20055;-70
2021/06/30 04:41:58;;;;;;;10.25;5.32;;;;;;;;;;5069851;28;20404;-70
2021/06/30 04:44:24;;;;;;;6.60;4.57;;;;;;;;;;5070028;28;20025;-69
2021/06/30 04:46:51;;;;;;;9.77;5.80;;;;;;;;;;5068904;28;20358;-70
2021/06/30 04:49:17;;;;;;;8.05;4.88;;;;;;;;;;5069423;28;20424;-70
2021/06/30 04:51:44;;;;;;;8.18;4.82;;;;;;;;;;5069795;28;20075;-70
2021/06/30 04:56:09;;;;;;;7.38;4.45;;;;;;;;;;5110078;27;20385;-70
2021/06/30 04:58:35;;;;;;;9.02;5.13;;;;;;;;;;5110590;28;20369;-70
2021/06/30 05:01:02;;;;;;;8.20;5.10;;;;;;;;;;5110477;28;20035;-70
2021/06/30 05:03:29;;;;;;;6.13;3.50;;;;;;;;;;5110188;28;20412;-70
2021/06/30 05:05:56;;;;;;;11.15;4.55;;;;;;;;;;5110382;28;20012;-70
2021/06/30 05:08:25;;;;;;;9.32;4.97;;;;;;;;;;5110157;28;20020;-66
2021/06/30 05:10:52;;;;;;;9.32;4.70;;;;;;;;;;5108655;28;20379;-65
2021/06/30 05:13:18;;;;;;;7.88;4.72;;;;;;;;;;5110141;28;20027;-65
2021/06/30 05:15:45;;;;;;;9.98;5.10;;;;;;;;;;5110098;28;20036;-66
2021/06/30 05:18:11;;;;;;;7.65;4.93;;;;;;;;;;5108220;28;20065;-65
2021/06/30 05:22:07;;;;;;;12.75;5.50;;;;;;;;;;5131073;27;20323;-66
2021/06/30 05:24:34;;;;;;;10.65;5.18;;;;;;;;;;5108682;28;20039;-65
2021/06/30 05:27:00;;;;;;;7.63;5.03;;;;;;;;;;5089629;28;20026;-65
2021/06/30 05:29:27;;;;;;;9.02;5.32;;;;;;;;;;5109699;28;20035;-66
2021/06/30 05:31:53;;;;;;;8.00;5.43;;;;;;;;;;5090877;28;20436;-66
2021/06/30 05:34:19;;;;;;;11.45;5.85;;;;;;;;;;5089107;28;20024;-66
2021/06/30 05:36:49;;;;;;;11.45;6.20;;;;;;;;;;5108926;28;20035;-65
2021/06/30 05:39:18;;;;;;;8.82;5.53;;;;;;;;;;5106234;28;20029;-66
2021/06/30 05:41:45;;;;;;;10.73;6.30;;;;;;;;;;5098889;28;20123;-66
2021/06/30 05:44:12;;;;;;;12.55;5.78;;;;;;;;;;5078132;28;20536;-64
2021/06/30 05:46:39;;;;;;;13.07;5.55;;;;;;;;;;5085325;28;20032;-69
2021/06/30 05:49:06;;;;;;;10.23;5.10;;;;;;;;;;5088529;28;20086;-70
2021/06/30 05:53:35;;;;;;;8.32;5.15;;;;;;;;;;5068294;28;20418;-69
2021/06/30 05:56:02;;;;;;;11.98;5.32;;;;;;;;;;5068852;28;20487;-70
2021/06/30 05:58:28;;;;;;;11.38;5.20;;;;;;;;;;5068645;28;20048;-70
2021/06/30 06:00:54;;;;;;;7.68;5.22;;;;;;;;;;5069272;28;20420;-70
2021/06/30 06:03:20;;;;;;;10.50;6.18;;;;;;;;;;5069733;28;20025;-69
2021/06/30 06:05:47;;;;;;;7.72;5.18;;;;;;;;;;5064065;28;20028;-70
2021/06/30 06:08:13;;;;;;;10.90;6.10;;;;;;;;;;5067400;28;20021;-71
2021/06/30 06:10:39;;;;;;;10.23;6.20;;;;;;;;;;5066603;28;20029;-72
2021/06/30 06:13:05;;;;;;;11.52;5.50;;;;;;;;;;5063185;28;20078;-71
2021/06/30 06:15:31;;;;;;;10.90;5.68;;;;;;;;;;5057221;28;20024;-71
2021/06/30 06:17:57;;;;;;;11.57;6.40;;;;;;;;;;5064740;28;20029;-71
2021/06/30 06:20:23;;;;;;;8.10;5.60;;;;;;;;;;5064275;28;20025;-69
2021/06/30 06:22:50;;;;;;;12.90;6.30;;;;;;;;;;5066530;28;20021;-71
2021/06/30 06:25:16;;;;;;;11.00;5.72;;;;;;;;;;5067125;28;20028;-69
2021/06/30 06:27:42;;;;;;;11.15;6.22;;;;;;;;;;5064082;28;20035;-71
2021/06/30 06:30:09;;;;;;;9.40;5.43;;;;;;;;;;5063999;28;20017;-71
2021/06/30 06:32:36;;;;;;;10.80;5.63;;;;;;;;;;5065088;28;20039;-71
2021/06/30 06:35:03;;;;;;;8.45;6.07;;;;;;;;;;5063173;28;20039;-71
2021/06/30 06:37:29;;;;;;;10.18;5.30;;;;;;;;;;5064928;28;20036;-70
2021/06/30 06:39:55;;;;;;;12.52;6.13;;;;;;;;;;5066324;28;20485;-70
2021/06/30 06:42:22;;;;;;;9.15;5.75;;;;;;;;;;5066305;28;20107;-71
2021/06/30 06:44:48;;;;;;;10.65;5.68;;;;;;;;;;5065666;28;20477;-71
2021/06/30 06:47:14;;;;;;;9.00;5.55;;;;;;;;;;5064341;28;20032;-69
2021/06/30 06:49:40;;;;;;;12.02;5.70;;;;;;;;;;5065912;28;20536;-70
2021/06/30 06:52:07;;;;;;;8.38;5.13;;;;;;;;;;5060613;28;20063;-70
2021/06/30 06:54:33;;;;;;;9.57;5.85;;;;;;;;;;5063479;28;20473;-69
2021/06/30 06:56:59;;;;;;;7.88;5.43;;;;;;;;;;5067521;28;20029;-70
2021/06/30 06:59:25;;;;;;;8.20;4.47;;;;;;;;;;5063263;28;20493;-71
2021/06/30 07:01:51;;;;;;;9.90;5.22;;;;;;;;;;5067662;28;20427;-70
2021/06/30 07:04:17;;;;;;;9.68;5.43;;;;;;;;;;5056642;28;20029;-71
2021/06/30 07:06:44;;;;;;;8.40;4.90;;;;;;;;;;5053363;28;20035;-71
2021/06/30 07:09:10;;;;;;;10.25;5.15;;;;;;;;;;5054132;28;20021;-71
2021/06/30 07:11:36;;;;;;;11.93;5.35;;;;;;;;;;5052645;28;20035;-70
2021/06/30 07:14:03;;;;;;;8.30;4.43;;;;;;;;;;5048278;28;20521;-69
2021/06/30 07:16:29;;;;;;;9.85;4.72;;;;;;;;;;5051952;28;20052;-69
2021/06/30 07:18:55;;;;;;;10.32;4.93;;;;;;;;;;5050537;28;20033;-69
2021/06/30 07:21:21;;;;;;;9.13;4.80;;;;;;;;;;5052695;28;20021;-69
2021/06/30 07:23:47;;;;;;;11.45;5.72;;;;;;;;;;5051926;28;20048;-69
2021/06/30 07:26:16;;;;;;;11.80;5.57;;;;;;;;;;5052390;28;20017;-69
2021/06/30 07:28:43;;;;;;;13.02;5.78;;;;;;;;;;5051269;28;20037;-69
2021/06/30 07:31:09;;;;;;;8.65;4.93;;;;;;;;;;5049551;28;20013;-69
2021/06/30 07:33:37;;;;;;;10.63;5.63;;;;;;;;;;5049393;28;20033;-70
2021/06/30 07:36:04;;;;;;;15.25;5.57;;;;;;;;;;5053904;28;20017;-69
2021/06/30 07:38:30;;;;;;;10.82;5.18;;;;;;;;;;5051586;28;20035;-70
2021/06/30 07:40:56;;;;;;;9.32;4.93;;;;;;;;;;5049121;28;20032;-70
2021/06/30 07:43:22;;;;;;;11.60;4.90;;;;;;;;;;5053937;28;20021;-70
2021/06/30 07:45:48;;;;;;;7.55;4.35;;;;;;;;;;5050504;28;20025;-70
2021/06/30 07:48:14;;;;;;;9.65;5.00;;;;;;;;;;5053629;28;20036;-71
2021/06/30 07:50:41;;;;;;;10.65;4.97;;;;;;;;;;5053790;28;20053;-70
2021/06/30 07:53:07;;;;;;;8.75;4.63;;;;;;;;;;5049258;28;20051;-72
2021/06/30 07:55:33;;;;;;;11.95;5.07;;;;;;;;;;5051714;28;20075;-70
2021/06/30 07:57:59;;;;;;;8.73;4.68;;;;;;;;;;5052635;28;20031;-72
2021/06/30 08:00:25;;;;;;;9.48;4.97;;;;;;;;;;5052301;28;20546;-73
2021/06/30 08:02:51;;;;;;;7.88;4.55;;;;;;;;;;5053575;28;20083;-70
2021/06/30 08:05:18;;;;;;;10.57;4.50;;;;;;;;;;5049955;28;20032;-71
2021/06/30 08:07:44;;;;;;;7.60;4.55;;;;;;;;;;5053052;28;20108;-70
2021/06/30 08:10:10;;;;;;;9.73;4.43;;;;;;;;;;5053130;28;20101;-71
2021/06/30 08:12:37;;;;;;;10.27;5.07;;;;;;;;;;5051465;28;20528;-71
2021/06/30 08:15:04;;;;;;;8.25;4.88;;;;;;;;;;5052066;28;20036;-73
2021/06/30 08:17:30;;;;;;;8.85;4.28;;;;;;;;;;5052037;28;20052;-72
2021/06/30 08:19:56;;;;;;;8.63;4.30;;;;;;;;;;5051631;28;20021;-72
2021/06/30 08:22:23;;;;;;;9.23;4.75;;;;;;;;;;5051889;28;20028;-71
2021/06/30 08:24:49;;;;;;;9.82;4.65;;;;;;;;;;5052691;28;20029;-72
2021/06/30 08:27:16;;;;;;;7.78;4.72;;;;;;;;;;5051151;28;20021;-73
2021/06/30 08:29:43;;;;;;;11.32;4.65;;;;;;;;;;5052964;28;20132;-72
2021/06/30 08:32:09;;;;;;;7.15;4.45;;;;;;;;;;5052828;28;20036;-72
2021/06/30 08:34:36;;;;;;;9.73;4.72;;;;;;;;;;5051680;28;20432;-71
2021/06/30 08:37:05;;;;;;;7.45;4.57;;;;;;;;;;5052593;28;20047;-71
2021/06/30 08:39:31;;;;;;;7.45;4.20;;;;;;;;;;5052816;28;20433;-72
2021/06/30 08:41:58;;;;;;;9.00;4.38;;;;;;;;;;5047459;28;20029;-71
2021/06/30 08:44:24;;;;;;;10.20;4.25;;;;;;;;;;5051271;28;20018;-72
2021/06/30 08:46:52;;;;;;;8.63;4.40;;;;;;;;;;5051638;28;20087;-72
2021/06/30 08:49:22;;;;;;;11.82;4.28;;;;;;;;;;5050119;28;20060;-72
2021/06/30 08:51:50;;;;;;;14.35;4.20;;;;;;;;;;5049442;28;20045;-69
2021/06/30 08:54:16;;;;;;;11.48;4.70;;;;;;;;;;5050481;28;20032;-71
2021/06/30 08:56:42;;;;;;;7.95;4.45;;;;;;;;;;5050112;28;20435;-72
2021/06/30 08:59:08;;;;;;;7.32;3.40;;;;;;;;;;5051309;28;20029;-73
2021/06/30 09:01:35;;;;;;;7.43;3.97;;;;;;;;;;5052631;28;20024;-73
2021/06/30 09:04:01;;;;;;;5.97;4.25;;;;;;;;;;5052429;28;20049;-71
2021/06/30 09:06:28;;;;;;;7.22;3.90;;;;;;;;;;5046702;28;20412;-71
2021/06/30 09:08:57;;;;;;;7.60;4.20;;;;;;;;;;5049797;28;20428;-71
2021/06/30 09:11:26;;;;;;;6.38;3.42;;;;;;;;;;5051062;28;20529;-70
2021/06/30 09:14:08;;;;;;;8.07;3.90;;;;;;;;;;5052467;28;20107;-68
2021/06/30 09:17:16;;;;;;;5.95;4.03;;;;;;;;;;5052017;28;20048;-69
2021/06/30 09:19:45;;;;;;;12.18;4.50;;;;;;;;;;5049698;28;20493;-70
2021/06/30 09:22:11;;;;;;;6.65;3.78;;;;;;;;;;5049736;28;20111;-70
2021/06/30 09:24:38;;;;;;;5.68;3.75;;;;;;;;;;5050205;28;20027;-71
2021/06/30 09:27:05;;;;;;;7.07;3.90;;;;;;;;;;5050800;28;20470;-71
2021/06/30 09:29:31;;;;;;;7.88;3.95;;;;;;;;;;5051681;28;20056;-70
2021/06/30 09:31:57;;;;;;;6.65;3.60;;;;;;;;;;5052474;28;20036;-71
2021/06/30 09:34:25;;;;;;;5.18;2.90;;;;;;;;;;5052545;28;20378;-69
2021/06/30 09:37:00;;;;;;;10.10;3.50;;;;;;;;;;5051983;28;20470;-69
2021/06/30 09:39:28;;;;;;;8.30;4.63;;;;;;;;;;5052256;28;20075;-69
2021/06/30 09:42:03;;;;;;;8.07;3.50;;;;;;;;;;5052319;28;20021;-68
2021/06/30 09:44:31;;;;;;;10.85;3.70;;;;;;;;;;5051611;28;20021;-68
2021/06/30 09:46:58;;;;;;;6.53;3.85;;;;;;;;;;5052212;28;20024;-68
2021/06/30 09:49:26;;;;;;;7.43;3.63;;;;;;;;;;5050090;28;20492;-68
2021/06/30 09:52:20;;;;;;;6.65;3.65;;;;;;;;;;5051063;28;20493;-68
2021/06/30 09:54:47;;;;;;;8.95;3.90;;;;;;;;;;5043856;28;20451;-69
2021/06/30 09:57:17;;;;;;;6.55;3.60;;;;;;;;;;5048923;28;20029;-69
2021/06/30 09:59:44;;;;;;;10.73;4.00;;;;;;;;;;5048705;28;20029;-69
2021/06/30 10:02:16;;;;;;;7.47;4.22;;;;;;;;;;5052140;28;20055;-69
2021/06/30 10:04:43;;;;;;;6.70;3.20;;;;;;;;;;5051924;28;20017;-69
2021/06/30 10:07:11;;;;;;;7.30;3.63;;;;;;;;;;5052126;28;20039;-69
2021/06/30 10:09:38;;;;;;;7.00;3.53;;;;;;;;;;5051980;28;20104;-69
2021/06/30 10:12:06;;;;;;;9.40;3.25;;;;;;;;;;5049702;28;20481;-69
2021/06/30 10:14:32;;;;;;;6.85;3.40;;;;;;;;;;5050114;28;20474;-69
2021/06/30 10:16:59;;;;;;;5.95;3.38;;;;;;;;;;5049211;28;20029;-69
2021/06/30 10:19:26;;;;;;;5.82;3.47;;;;;;;;;;5049856;28;20057;-69
2021/06/30 10:21:52;;;;;;;8.23;3.15;;;;;;;;;;5050041;28;20029;-69
2021/06/30 10:24:19;;;;;;;8.48;3.40;;;;;;;;;;5050027;28;20013;-69
2021/06/30 10:26:45;;;;;;;7.55;3.53;;;;;;;;;;5051749;28;20029;-69
2021/06/30 10:29:11;;;;;;;7.35;3.58;;;;;;;;;;5051801;28;20545;-71
2021/06/30 10:31:38;;;;;;;6.63;3.50;;;;;;;;;;5051311;28;20113;-70
2021/06/30 10:34:06;;;;;;;8.57;3.70;;;;;;;;;;5049898;28;20546;-70
2021/06/30 10:36:52;;;;;;;6.50;3.25;;;;;;;;;;5049887;28;20100;-70
2021/06/30 10:39:19;;;;;;;5.40;3.17;;;;;;;;;;5049147;28;20079;-70
2021/06/30 10:41:54;;;;;;;8.63;3.92;;;;;;;;;;5051955;28;20032;-70
2021/06/30 10:44:24;;;;;;;7.05;3.60;;;;;;;;;;5052203;28;20070;-70
2021/06/30 10:46:52;;;;;;;9.85;4.03;;;;;;;;;;5051588;28;20029;-68
2021/06/30 10:49:19;;;;;;;6.05;3.40;;;;;;;;;;5051260;28;20022;-69
2021/06/30 10:51:47;;;;;;;9.50;3.75;;;;;;;;;;5052796;28;20124;-69
2021/06/30 10:54:32;;;;;;;5.43;3.22;;;;;;;;;;5052049;28;20104;-71
2021/06/30 10:57:17;;;;;;;10.90;3.92;;;;;;;;;;5053464;28;20021;-69
2021/06/30 11:00:02;;;;;;;10.23;3.75;;;;;;;;;;5053604;28;20025;-69
2021/06/30 11:02:32;;;;;;;6.85;3.47;;;;;;;;;;5053274;28;20110;-68
2021/06/30 11:05:13;;;;;;;10.25;3.45;;;;;;;;;;5055038;28;20050;-69
2021/06/30 11:07:41;;;;;;;7.17;3.87;;;;;;;;;;5055395;28;20499;-69
2021/06/30 11:10:20;;;;;;;12.52;3.65;;;;;;;;;;5054845;28;20257;-69
2021/06/30 11:12:50;;;;;;;7.93;3.05;;;;;;;;;;5054893;28;20116;-69
2021/06/30 11:15:39;;;;;;;11.05;3.67;;;;;;;;;;5054840;28;20031;-69
2021/06/30 11:18:25;;;;;;;9.57;3.92;;;;;;;;;;5052212;28;20064;-69
2021/06/30 11:20:53;;;;;;;6.40;3.40;;;;;;;;;;5055189;28;20021;-69
2021/06/30 11:23:20;;;;;;;7.10;3.33;;;;;;;;;;5054783;28;20477;-70
2021/06/30 11:25:46;;;;;;;6.75;3.70;;;;;;;;;;5053855;28;20025;-69
2021/06/30 11:28:29;;;;;;;6.20;2.75;;;;;;;;;;5054995;28;20096;-69
2021/06/30 11:30:55;;;;;;;6.50;3.42;;;;;;;;;;5053010;28;20019;-70
2021/06/30 11:33:21;;;;;;;6.55;3.20;;;;;;;;;;5054709;28;20116;-70
2021/06/30 11:35:48;;;;;;;5.35;2.85;;;;;;;;;;5052720;28;20132;-69
2021/06/30 11:38:21;;;;;;;10.50;3.13;;;;;;;;;;5053634;28;20029;-70
2021/06/30 11:43:17;;;;;;;9.45;3.10;;;;;;;;;;5054301;28;20029;-70
2021/06/30 11:45:44;;;;;;;7.50;2.78;;;;;;;;;;5053466;28;20495;-69
2021/06/30 11:48:11;;;;;;;9.70;3.58;;;;;;;;;;5054197;28;20033;-69
2021/06/30 11:50:45;;;;;;;5.63;2.80;;;;;;;;;;5052795;28;20116;-69
2021/06/30 11:53:11;;;;;;;4.70;2.50;;;;;;;;;;5054314;28;20511;-70
2021/06/30 11:55:39;;;;;;;10.02;3.60;;;;;;;;;;5054379;28;20021;-70
2021/06/30 11:58:06;;;;;;;7.18;2.53;;;;;;;;;;5054071;28;20029;-70
2021/06/30 12:00:34;;;;;;;8.32;3.28;;;;;;;;;;5054386;28;20021;-70
2021/06/30 12:03:04;;;;;;;6.93;3.08;;;;;;;;;;5052507;28;20041;-69
2021/06/30 12:05:31;;;;;;;4.97;2.50;;;;;;;;;;5053795;28;20100;-70
2021/06/30 12:07:58;;;;;;;8.15;3.33;;;;;;;;;;5054252;28;20473;-68
2021/06/30 12:10:25;;;;;;;6.43;3.08;;;;;;;;;;5054083;28;20407;-69
2021/06/30 12:12:51;;;;;;;6.45;2.67;;;;;;;;;;5053640;28;20032;-69
2021/06/30 12:15:19;;;;;;;7.60;2.90;;;;;;;;;;5053666;28;20512;-68
2021/06/30 12:18:03;;;;;;;8.00;2.75;;;;;;;;;;5053959;28;20029;-68
2021/06/30 12:20:30;;;;;;;7.80;2.58;;;;;;;;;;5053647;28;20154;-69
2021/06/30 12:22:56;;;;;;;7.32;2.67;;;;;;;;;;5053804;28;20487;-70
2021/06/30 12:25:24;;;;;;;6.80;2.30;;;;;;;;;;5051149;28;20025;-70
2021/06/30 12:27:55;;;;;;;5.57;2.13;;;;;;;;;;5050762;28;20024;-70
2021/06/30 12:30:23;;;;;;;7.07;2.75;;;;;;;;;;5052074;28;20488;-70
2021/06/30 12:32:54;;;;;;;7.05;2.53;;;;;;;;;;5051320;28;20640;-70
2021/06/30 12:35:28;;;;;;;5.70;2.60;;;;;;;;;;5051555;28;20017;-68
2021/06/30 12:37:59;;;;;;;8.70;2.47;;;;;;;;;;5051642;28;20021;-70
2021/06/30 12:40:26;;;;;;;9.57;2.92;;;;;;;;;;5051172;28;20029;-70
2021/06/30 12:42:59;;;;;;;11.10;3.10;;;;;;;;;;5051524;28;20053;-69
2021/06/30 12:45:47;;;;;;;5.85;2.50;;;;;;;;;;5052408;28;20016;-69
2021/06/30 12:48:17;;;;;;;8.80;2.70;;;;;;;;;;5032564;28;20029;-70
2021/06/30 12:50:46;;;;;;;9.02;2.88;;;;;;;;;;5043663;28;20482;-68
2021/06/30 12:53:22;;;;;;;11.27;3.30;;;;;;;;;;5052406;28;20060;-69
2021/06/30 12:55:52;;;;;;;6.65;2.40;;;;;;;;;;5053036;28;20021;-69
2021/06/30 12:58:19;;;;;;;7.15;2.97;;;;;;;;;;5053057;28;20040;-68
2021/06/30 13:00:55;;;;;;;9.95;2.78;;;;;;;;;;5052392;28;20028;-68
2021/06/30 13:03:21;;;;;;;7.75;2.45;;;;;;;;;;5052833;28;20366;-68
2021/06/30 13:05:49;;;;;;;11.95;2.40;;;;;;;;;;5053025;28;20036;-68
2021/06/30 13:08:29;;;;;;;8.00;2.90;;;;;;;;;;5052564;28;20029;-68
2021/06/30 13:11:17;;;;;;;6.63;2.30;;;;;;;;;;5052915;28;20025;-69
2021/06/30 13:13:57;;;;;;;10.80;2.65;;;;;;;;;;5052860;28;20033;-69
2021/06/30 13:16:23;;;;;;;16.75;2.88;;;;;;;;;;5052514;28;20488;-69
2021/06/30 13:18:54;;;;;;;18.60;3.33;;;;;;;;;;5051507;28;20027;-69
2021/06/30 13:21:20;;;;;;;6.32;2.78;;;;;;;;;;5052377;28;20024;-69
2021/06/30 13:24:05;;;;;;;14.07;2.78;;;;;;;;;;5052345;28;20029;-69
2021/06/30 13:26:51;;;;;;;8.77;3.17;;;;;;;;;;5051630;28;20377;-68
2021/06/30 13:35:16;;;;;;;10.40;2.75;;;;;;;;;;5052172;28;20094;-69
2021/06/30 13:37:42;;;;;;;;;;;;;;;;;;5051097;28;20028;-68
2021/06/30 13:40:08;;;;;;;11.52;3.50;;;;;;;;;;5051323;28;19939;-69
2021/06/30 13:42:35;;;;;;;7.32;2.75;;;;;;;;;;5052115;28;20025;-69
2021/06/30 13:45:01;;;;;;;7.63;2.35;;;;;;;;;;5052621;28;20101;-69
2021/06/30 13:47:27;;;;;;;27.60;3.53;;;;;;;;;;5051026;28;20063;-69
2021/06/30 13:49:53;;;;;;;8.75;3.25;;;;;;;;;;5052114;28;20473;-69
2021/06/30 13:52:19;;;;;;;8.80;2.55;;;;;;;;;;5052117;28;20053;-69
2021/06/30 13:54:46;;;;;;;12.07;3.63;;;;;;;;;;5052479;28;20537;-69
2021/06/30 13:57:12;;;;;;;7.85;2.60;;;;;;;;;;5051928;28;20408;-69
2021/06/30 13:59:38;;;;;;;5.28;2.70;;;;;;;;;;5052394;28;20067;-69
2021/06/30 14:02:04;;;;;;;14.23;3.17;;;;;;;;;;5051692;28;20024;-68
2021/06/30 14:04:30;;;;;;;13.38;3.22;;;;;;;;;;5051913;28;20032;-69
2021/06/30 14:06:56;;;;;;;11.75;2.95;;;;;;;;;;5052502;28;20385;-69
2021/06/30 14:09:23;;;;;;;7.45;2.60;;;;;;;;;;5051140;28;20029;-69
2021/06/30 14:11:49;;;;;;;8.60;2.55;;;;;;;;;;5051334;28;20028;-67
2021/06/30 14:14:15;;;;;;;7.90;2.75;;;;;;;;;;5053951;28;20037;-68
2021/06/30 14:16:41;;;;;;;5.22;2.33;;;;;;;;;;5055300;28;20029;-69
2021/06/30 14:19:08;;;;;;;11.60;3.53;;;;;;;;;;5054251;28;20424;-68
2021/06/30 14:21:35;;;;;;;8.55;3.65;;;;;;;;;;5054160;28;20043;-68
2021/06/30 14:24:01;;;;;;;11.35;3.10;;;;;;;;;;5053210;28;20381;-68
2021/06/30 14:26:27;;;;;;;15.73;2.92;;;;;;;;;;5053985;28;20104;-68
2021/06/30 14:28:54;;;;;;;12.02;3.42;;;;;;;;;;5054417;28;20048;-68
2021/06/30 14:31:20;;;;;;;10.52;3.30;;;;;;;;;;5055331;28;20025;-68
2021/06/30 14:33:46;;;;;;;10.55;3.70;;;;;;;;;;5054483;28;20485;-68
2021/06/30 14:36:13;;;;;;;10.90;3.75;;;;;;;;;;5055965;28;20388;-68
2021/06/30 14:38:39;;;;;;;13.40;3.13;;;;;;;;;;5055834;28;20055;-67
2021/06/30 14:41:05;;;;;;;9.80;3.10;;;;;;;;;;5055363;28;20024;-68
2021/06/30 14:43:31;;;;;;;9.95;3.28;;;;;;;;;;5054416;28;20034;-68
2021/06/30 14:46:02;;;;;;;16.90;3.90;;;;;;;;;;5054183;28;20067;-68
2021/06/30 14:48:29;;;;;;;9.13;3.45;;;;;;;;;;5054630;28;20021;-68
2021/06/30 14:50:57;;;;;;;7.10;3.53;;;;;;;;;;5055618;28;20047;-68
2021/06/30 14:53:24;;;;;;;13.45;3.42;;;;;;;;;;5054751;28;20076;-68
2021/06/30 14:55:50;;;;;;;10.57;3.90;;;;;;;;;;5055523;28;20374;-69
2021/06/30 14:58:17;;;;;;;5.95;2.97;;;;;;;;;;5055462;28;20389;-69
2021/06/30 15:00:44;;;;;;;9.63;3.35;;;;;;;;;;5055342;28;20017;-68
2021/06/30 15:03:10;;;;;;;8.70;3.53;;;;;;;;;;5055427;28;20029;-68
2021/06/30 15:05:36;;;;;;;7.53;3.25;;;;;;;;;;5055433;28;20471;-69
2021/06/30 15:08:02;;;;;;;8.05;3.30;;;;;;;;;;5055199;28;20097;-69
2021/06/30 15:10:29;;;;;;;11.05;3.67;;;;;;;;;;5055222;28;20021;-69